Time;durP1;ratioP1;P1;durP2;ratioP2;P2;SDS_P1;SDS_P2;PMS_P1;PMS_P2;Temp;Humidity;BMP_temperature;BMP_pressure;BME280_temperature;BME280_humidity;BME280_pressure;Samples;Min_cycle;Max_cycle;Signal;HPM_P1;HPM_P2
2021/12/11 00:01:10;;;;;;;0.10;0.10;;;2.60;99.90;;;;;;4974690;28;20121;-73
2021/12/11 00:03:42;;;;;;;0.50;0.50;;;2.60;99.90;;;;;;4989119;28;20527;-73
2021/12/11 00:06:25;;;;;;;0.43;0.43;;;2.60;99.90;;;;;;4974681;28;20499;-73
2021/12/11 00:08:57;;;;;;;0.30;0.30;;;2.60;99.90;;;;;;4974892;28;20170;-73
2021/12/11 00:11:36;;;;;;;0.17;0.17;;;2.70;99.90;;;;;;4974373;28;20031;-74
2021/12/11 00:14:07;;;;;;;1.55;1.45;;;2.70;99.90;;;;;;4989321;28;20498;-74
2021/12/11 00:16:36;;;;;;;1.65;1.55;;;2.70;99.90;;;;;;4974621;28;20049;-73
2021/12/11 00:19:22;;;;;;;1.00;1.00;;;2.70;99.90;;;;;;4974675;28;20046;-73
2021/12/11 00:21:50;;;;;;;1.95;0.73;;;2.70;99.90;;;;;;4989549;28;20039;-73
2021/12/11 00:24:26;;;;;;;1.13;1.13;;;2.60;99.90;;;;;;4973098;28;20034;-73
2021/12/11 00:27:08;;;;;;;0.10;0.10;;;2.60;99.90;;;;;;4988672;28;20030;-73
2021/12/11 00:29:36;;;;;;;0.52;0.52;;;2.70;99.90;;;;;;4974243;28;20050;-72
2021/12/11 00:32:10;;;;;;;1.33;1.27;;;2.70;99.90;;;;;;4973038;28;20047;-72
2021/12/11 00:34:43;;;;;;;2.67;1.02;;;2.70;99.90;;;;;;4974524;28;20031;-72
2021/12/11 00:37:11;;;;;;;0.65;0.65;;;2.60;99.90;;;;;;4988690;28;20090;-72
2021/12/11 00:39:55;;;;;;;2.90;1.75;;;2.60;99.90;;;;;;4988904;28;20074;-72
2021/12/11 00:42:31;;;;;;;0.32;0.32;;;2.60;99.90;;;;;;4988567;28;20508;-73
2021/12/11 00:44:59;;;;;;;0.10;0.10;;;2.60;99.90;;;;;;4972593;28;20419;-73
2021/12/11 00:47:31;;;;;;;1.52;1.42;;;2.70;99.90;;;;;;4988800;28;20526;-72
2021/12/11 00:50:07;;;;;;;0.30;0.30;;;2.60;99.90;;;;;;4973822;28;20046;-73
2021/12/11 00:52:58;;;;;;;0.30;0.30;;;2.70;99.90;;;;;;4973834;28;20045;-73
2021/12/11 00:55:32;;;;;;;5.55;0.85;;;2.70;99.90;;;;;;4988155;28;20043;-73
2021/12/11 00:58:22;;;;;;;5.47;3.08;;;2.60;99.90;;;;;;4973526;28;20046;-72
2021/12/11 01:01:27;;;;;;;0.77;0.77;;;2.60;99.90;;;;;;4972922;28;20039;-73
2021/12/11 01:04:05;;;;;;;31.35;3.22;;;2.60;99.90;;;;;;4972526;28;20298;-73
2021/12/11 01:06:34;;;;;;;0.85;0.80;;;2.70;99.90;;;;;;4988771;28;20030;-73
2021/12/11 01:09:22;;;;;;;1.30;1.20;;;2.70;99.90;;;;;;4973469;28;20042;-73
2021/12/11 01:12:11;;;;;;;0.80;0.63;;;2.70;99.90;;;;;;4974045;28;20031;-73
2021/12/11 01:14:53;;;;;;;1.33;1.23;;;2.80;99.90;;;;;;4988573;28;20392;-73
2021/12/11 01:17:31;;;;;;;3.97;2.00;;;2.70;99.90;;;;;;4987273;28;20045;-73
2021/12/11 01:20:04;;;;;;;0.10;0.10;;;2.60;99.90;;;;;;4973316;28;20043;-72
2021/12/11 01:22:36;;;;;;;0.38;0.38;;;2.60;99.90;;;;;;4973438;28;20668;-72
2021/12/11 01:25:27;;;;;;;0.55;0.55;;;2.60;99.90;;;;;;4988389;28;20483;-72
2021/12/11 01:28:00;;;;;;;0.40;0.40;;;2.60;99.90;;;;;;4974090;28;20043;-72
2021/12/11 01:30:39;;;;;;;2.70;2.50;;;2.60;99.90;;;;;;4988015;28;20039;-72
2021/12/11 01:33:10;;;;;;;0.35;0.35;;;2.70;99.90;;;;;;4987781;28;20043;-72
2021/12/11 01:35:37;;;;;;;0.40;0.40;;;2.70;99.90;;;;;;4988195;28;20062;-72
2021/12/11 01:38:17;;;;;;;0.63;0.63;;;2.70;99.90;;;;;;4988141;28;20090;-72
2021/12/11 01:40:47;;;;;;;0.30;0.30;;;2.70;99.90;;;;;;4972067;28;20096;-73
2021/12/11 01:43:14;;;;;;;0.63;0.63;;;2.70;99.90;;;;;;4973486;28;20384;-73
2021/12/11 01:45:47;;;;;;;0.30;0.30;;;2.70;99.90;;;;;;4971938;28;20050;-72
2021/12/11 01:48:33;;;;;;;0.70;0.70;;;2.70;99.90;;;;;;4973224;28;20134;-72
2021/12/11 01:51:20;;;;;;;0.35;0.35;;;2.60;99.90;;;;;;4971993;28;20045;-73
2021/12/11 01:54:03;;;;;;;0.15;0.15;;;2.60;99.90;;;;;;4987818;28;20484;-73
2021/12/11 01:56:33;;;;;;;0.10;0.10;;;2.70;99.90;;;;;;4973418;28;20082;-72
2021/12/11 01:59:08;;;;;;;1.05;0.68;;;2.70;99.90;;;;;;4987847;28;20396;-72
2021/12/11 02:02:02;;;;;;;1.13;1.10;;;2.60;99.90;;;;;;4973208;28;20466;-72
2021/12/11 02:04:30;;;;;;;1.08;1.05;;;2.60;99.90;;;;;;4976862;28;20403;-73
2021/12/11 02:07:12;;;;;;;0.65;0.65;;;2.60;99.90;;;;;;4991981;28;20624;-73
2021/12/11 02:09:44;;;;;;;0.77;0.70;;;2.70;99.90;;;;;;4991012;28;20046;-73
2021/12/11 02:12:21;;;;;;;0.63;0.63;;;2.70;99.90;;;;;;4975527;28;20046;-73
2021/12/11 02:14:52;;;;;;;0.35;0.28;;;2.70;99.90;;;;;;4991240;28;20124;-73
2021/12/11 02:17:25;;;;;;;1.65;1.55;;;2.70;99.90;;;;;;4991438;28;20030;-71
2021/12/11 02:19:53;;;;;;;0.20;0.20;;;2.70;99.90;;;;;;4976855;28;20161;-72
2021/12/11 02:22:32;;;;;;;1.02;1.00;;;2.70;99.90;;;;;;4976218;28;20035;-71
2021/12/11 02:25:03;;;;;;;0.10;0.10;;;2.80;99.90;;;;;;4976756;28;20106;-72
2021/12/11 02:27:57;;;;;;;6.18;2.05;;;2.70;99.90;;;;;;4975221;28;20038;-74
2021/12/11 02:30:44;;;;;;;0.20;0.20;;;2.80;99.90;;;;;;4980180;28;20042;-72
2021/12/11 02:33:39;;;;;;;0.32;0.32;;;2.90;99.90;;;;;;4976794;28;20038;-72
2021/12/11 02:36:13;;;;;;;0.25;0.25;;;2.90;99.90;;;;;;4990885;28;20031;-71
2021/12/11 02:39:02;;;;;;;0.73;0.73;;;2.90;99.90;;;;;;4976509;28;20050;-71
2021/12/11 02:41:49;;;;;;;3.00;1.95;;;2.90;99.90;;;;;;4975014;28;20039;-72
2021/12/11 02:44:42;;;;;;;0.10;0.10;;;3.00;99.90;;;;;;4991168;28;20038;-72
2021/12/11 02:47:34;;;;;;;1.60;1.50;;;3.10;99.90;;;;;;4976057;28;20042;-72
2021/12/11 02:50:14;;;;;;;0.65;0.65;;;3.00;99.90;;;;;;4976409;28;20046;-72
2021/12/11 02:52:59;;;;;;;0.32;0.32;;;3.10;99.90;;;;;;4976025;28;20032;-72
2021/12/11 02:55:59;;;;;;;0.10;0.10;;;3.10;99.90;;;;;;4989961;28;20039;-71
2021/12/11 02:58:34;;;;;;;0.00;0.00;;;3.20;99.90;;;;;;4988373;28;20038;-72
2021/12/11 03:01:09;;;;;;;0.10;0.10;;;3.20;99.90;;;;;;4975962;28;20034;-72
2021/12/11 03:03:42;;;;;;;0.50;0.50;;;3.20;99.90;;;;;;4990894;28;20042;-73
2021/12/11 03:06:17;;;;;;;0.10;0.10;;;3.20;99.90;;;;;;4974871;28;20114;-73
2021/12/11 03:08:44;;;;;;;0.10;0.10;;;3.20;99.90;;;;;;4975900;28;20046;-73
2021/12/11 03:11:16;;;;;;;0.20;0.20;;;3.30;99.90;;;;;;4974531;28;20480;-72
2021/12/11 03:13:50;;;;;;;0.13;0.13;;;3.20;99.90;;;;;;4974471;28;20054;-73
2021/12/11 03:16:24;;;;;;;0.10;0.10;;;3.20;99.90;;;;;;4975017;28;20045;-73
2021/12/11 03:18:51;;;;;;;0.65;0.65;;;3.30;99.90;;;;;;4974479;28;20042;-73
2021/12/11 03:21:18;;;;;;;1.85;1.75;;;3.20;99.90;;;;;;4990512;28;20027;-73
2021/12/11 03:23:44;;;;;;;0.08;0.08;;;3.30;99.90;;;;;;4990397;28;20056;-73
2021/12/11 03:26:10;;;;;;;0.55;0.55;;;3.30;99.90;;;;;;4975398;28;20614;-73
2021/12/11 03:28:37;;;;;;;0.65;0.38;;;3.30;99.90;;;;;;4990307;28;20365;-73
2021/12/11 03:31:06;;;;;;;0.10;0.10;;;3.30;99.90;;;;;;4990092;28;20030;-71
2021/12/11 03:33:41;;;;;;;0.77;0.77;;;3.30;99.90;;;;;;4975399;28;20038;-72
2021/12/11 03:36:11;;;;;;;1.65;1.55;;;3.30;99.90;;;;;;4990083;28;20030;-72
2021/12/11 03:38:40;;;;;;;1.07;0.97;;;3.30;99.90;;;;;;4975316;28;20031;-72
2021/12/11 03:41:06;;;;;;;1.48;1.38;;;3.40;99.90;;;;;;4975178;28;20042;-72
2021/12/11 03:43:34;;;;;;;0.10;0.10;;;3.30;99.90;;;;;;4989791;28;20039;-72
2021/12/11 03:46:05;;;;;;;1.20;1.10;;;3.20;99.90;;;;;;4974941;28;20055;-72
2021/12/11 03:48:46;;;;;;;0.43;0.43;;;3.30;99.90;;;;;;4974854;28;20385;-71
2021/12/11 03:51:17;;;;;;;0.20;0.20;;;3.30;99.90;;;;;;4989248;28;20492;-72
2021/12/11 03:53:43;;;;;;;0.10;0.10;;;3.40;99.90;;;;;;4974844;28;20500;-73
2021/12/11 03:56:14;;;;;;;0.20;0.20;;;3.50;99.90;;;;;;4973628;28;20114;-73
2021/12/11 03:58:48;;;;;;;0.27;0.27;;;3.50;99.90;;;;;;4974975;28;20038;-73
2021/12/11 04:01:33;;;;;;;0.30;0.30;;;3.40;99.90;;;;;;4973723;28;20031;-72
2021/12/11 04:04:07;;;;;;;0.95;0.95;;;3.40;99.90;;;;;;4988930;28;20455;-73
2021/12/11 04:06:33;;;;;;;0.32;0.32;;;3.40;99.90;;;;;;4974619;28;20472;-73
2021/12/11 04:09:03;;;;;;;1.10;1.00;;;3.40;99.90;;;;;;4989564;28;20077;-73
2021/12/11 04:11:33;;;;;;;0.10;0.10;;;3.40;99.90;;;;;;4989172;28;20483;-73
2021/12/11 04:14:23;;;;;;;2.30;1.15;;;3.40;99.90;;;;;;4989363;28;20074;-73
2021/12/11 04:16:51;;;;;;;0.10;0.10;;;3.40;99.90;;;;;;4974330;28;20186;-73
2021/12/11 04:19:17;;;;;;;0.13;0.13;;;3.40;99.90;;;;;;4974532;28;20040;-73
2021/12/11 04:21:44;;;;;;;0.20;0.20;;;3.40;99.90;;;;;;4974402;28;20034;-73
2021/12/11 04:24:17;;;;;;;0.10;0.10;;;3.40;99.90;;;;;;4988966;28;20035;-73
2021/12/11 04:26:45;;;;;;;0.43;0.43;;;3.50;99.90;;;;;;4988921;28;20035;-73
2021/12/11 04:29:11;;;;;;;0.57;0.57;;;3.50;99.90;;;;;;4989140;28;20094;-73
2021/12/11 04:31:42;;;;;;;1.25;0.73;;;3.50;99.90;;;;;;4988927;28;20029;-72
2021/12/11 04:34:13;;;;;;;0.10;0.10;;;3.60;99.90;;;;;;4988618;28;20062;-73
2021/12/11 04:36:46;;;;;;;1.33;1.17;;;3.50;99.90;;;;;;4974124;28;20081;-71
2021/12/11 04:39:16;;;;;;;0.00;0.00;;;3.50;99.90;;;;;;4989185;28;20062;-72
2021/12/11 04:42:00;;;;;;;0.10;0.10;;;3.60;99.90;;;;;;4988648;28;20082;-72
2021/12/11 04:44:36;;;;;;;0.10;0.10;;;3.60;99.90;;;;;;4987048;28;20113;-72
2021/12/11 04:47:16;;;;;;;0.00;0.00;;;3.60;99.90;;;;;;4988354;28;20153;-72
2021/12/11 04:49:50;;;;;;;0.10;0.10;;;3.50;99.90;;;;;;4972809;28;20077;-73
2021/12/11 04:52:33;;;;;;;0.13;0.13;;;3.60;99.90;;;;;;4974092;28;20051;-72
2021/12/11 05:06:25;;;;;;;0.63;0.63;;;3.70;99.90;;;;;;4984294;28;20042;-73
2021/12/11 05:11:37;;;;;;;1.35;0.90;;;3.80;99.90;;;;;;4987737;28;20031;-73
2021/12/11 05:14:06;;;;;;;0.10;0.10;;;3.70;99.90;;;;;;4973635;28;20034;-73
2021/12/11 05:16:32;;;;;;;0.88;0.55;;;3.70;99.90;;;;;;4988160;28;20093;-73
2021/12/11 05:18:58;;;;;;;0.20;0.20;;;3.70;99.90;;;;;;4973748;28;20117;-73
2021/12/11 05:21:24;;;;;;;0.30;0.30;;;3.70;99.90;;;;;;4973368;28;20476;-73
2021/12/11 05:23:52;;;;;;;0.10;0.10;;;3.80;99.90;;;;;;4988358;28;20027;-73
2021/12/11 05:26:20;;;;;;;0.30;0.30;;;3.80;99.90;;;;;;4988792;28;20031;-73
2021/12/11 05:28:46;;;;;;;0.10;0.10;;;3.70;99.90;;;;;;4988249;28;20039;-73
2021/12/11 05:31:13;;;;;;;0.30;0.30;;;3.70;99.90;;;;;;4973454;28;20087;-73
2021/12/11 05:33:41;;;;;;;0.30;0.30;;;3.70;99.90;;;;;;4987902;28;20433;-73
2021/12/11 05:36:10;;;;;;;1.45;0.70;;;3.80;99.90;;;;;;4973459;28;20038;-73
2021/12/11 05:38:39;;;;;;;1.40;0.55;;;3.70;99.90;;;;;;4991731;28;20027;-73
2021/12/11 05:41:10;;;;;;;0.20;0.20;;;3.60;99.90;;;;;;4992017;28;20030;-73
2021/12/11 05:43:36;;;;;;;;;;;3.60;99.90;;;;;;4977606;28;20643;-73
2021/12/11 05:46:03;;;;;;;1.55;0.50;;;3.60;99.90;;;;;;4977207;28;19954;-68
2021/12/11 05:48:29;;;;;;;0.10;0.10;;;3.60;99.90;;;;;;4977426;28;20038;-74
2021/12/11 05:51:02;;;;;;;0.17;0.17;;;3.70;99.90;;;;;;4977519;28;20035;-72
2021/12/11 05:53:31;;;;;;;0.30;0.30;;;3.70;99.90;;;;;;4977277;28;20038;-74
2021/12/11 05:56:02;;;;;;;0.25;0.25;;;3.70;99.90;;;;;;4991769;28;20027;-81
2021/12/11 06:01:31;;;;;;;2.28;1.65;;;3.60;99.90;;;;;;4976960;28;20121;-73
2021/12/11 06:04:05;;;;;;;0.85;0.85;;;3.80;99.90;;;;;;4977161;28;20034;-70
2021/12/11 06:06:31;;;;;;;0.20;0.20;;;3.70;99.90;;;;;;4976684;28;20026;-70
2021/12/11 06:08:57;;;;;;;0.10;0.10;;;3.70;99.90;;;;;;4976861;28;20030;-72
2021/12/11 06:11:23;;;;;;;0.70;0.57;;;3.70;99.90;;;;;;4991774;28;20027;-72
2021/12/11 06:13:49;;;;;;;0.73;0.73;;;3.80;99.90;;;;;;4976753;28;20045;-72
2021/12/11 06:16:16;;;;;;;5.82;2.17;;;3.80;99.90;;;;;;4976647;28;20019;-71
2021/12/11 06:18:45;;;;;;;0.75;0.73;;;3.80;99.90;;;;;;4991624;28;20492;-71
2021/12/11 06:21:12;;;;;;;0.20;0.20;;;3.80;99.90;;;;;;4976742;28;20065;-72
2021/12/11 06:23:39;;;;;;;0.80;0.80;;;3.80;99.90;;;;;;4991064;28;20027;-70
2021/12/11 06:26:04;;;;;;;0.30;0.30;;;3.80;99.90;;;;;;4976621;28;20031;-67
2021/12/11 06:28:30;;;;;;;0.20;0.20;;;3.80;99.90;;;;;;4976067;28;20455;-68
2021/12/11 06:30:59;;;;;;;1.33;1.20;;;3.80;99.90;;;;;;4975567;28;20023;-68
2021/12/11 06:33:31;;;;;;;0.20;0.20;;;3.80;99.90;;;;;;4976606;28;20067;-68
2021/12/11 06:36:06;;;;;;;0.10;0.10;;;3.80;99.90;;;;;;4976611;28;20030;-69
2021/12/11 06:38:35;;;;;;;1.20;0.90;;;3.80;99.90;;;;;;4974881;28;20038;-68
2021/12/11 06:41:03;;;;;;;0.10;0.10;;;3.80;99.90;;;;;;4976597;28;20054;-68
2021/12/11 06:43:29;;;;;;;0.10;0.10;;;3.80;99.90;;;;;;4975177;28;20044;-68
2021/12/11 06:45:56;;;;;;;0.00;0.00;;;3.70;99.90;;;;;;4974916;28;20047;-68
2021/12/11 06:48:22;;;;;;;0.10;0.10;;;3.70;99.90;;;;;;4974888;28;20404;-65
2021/12/11 06:50:49;;;;;;;3.30;1.88;;;3.60;99.90;;;;;;4958640;28;20035;-66
2021/12/11 06:53:37;;;;;;;0.15;0.15;;;3.60;99.90;;;;;;4974873;28;20559;-65
2021/12/11 06:56:05;;;;;;;0.20;0.20;;;3.60;99.90;;;;;;4974724;28;20031;-66
2021/12/11 06:58:32;;;;;;;0.22;0.22;;;3.60;99.90;;;;;;4975014;28;20043;-66
2021/12/11 07:00:58;;;;;;;0.10;0.10;;;3.60;99.90;;;;;;4975716;28;20073;-65
2021/12/11 07:03:25;;;;;;;0.22;0.22;;;3.50;99.90;;;;;;4975863;28;20035;-66
2021/12/11 07:05:50;;;;;;;2.50;1.27;;;3.50;99.90;;;;;;4974511;28;20118;-66
2021/12/11 07:08:17;;;;;;;0.25;0.25;;;3.50;99.90;;;;;;4973120;28;20114;-67
2021/12/11 07:10:46;;;;;;;0.10;0.10;;;3.50;99.90;;;;;;4974954;28;20058;-66
2021/12/11 07:13:14;;;;;;;3.08;2.08;;;3.50;99.90;;;;;;4974553;28;20093;-66
2021/12/11 07:15:40;;;;;;;0.43;0.43;;;3.50;99.90;;;;;;4975593;28;20035;-66
2021/12/11 07:18:06;;;;;;;0.20;0.20;;;3.50;99.90;;;;;;4975683;28;20037;-66
2021/12/11 07:20:33;;;;;;;0.40;0.40;;;3.40;99.90;;;;;;4974324;28;20051;-67
2021/12/11 07:22:59;;;;;;;0.93;0.85;;;3.50;99.90;;;;;;4975571;28;20057;-66
2021/12/11 07:25:40;;;;;;;0.95;0.95;;;3.60;99.90;;;;;;4973965;28;20042;-66
2021/12/11 07:28:09;;;;;;;0.60;0.60;;;3.60;99.90;;;;;;4974794;28;20046;-66
2021/12/11 07:30:39;;;;;;;0.10;0.10;;;3.70;99.90;;;;;;4974242;28;20039;-66
2021/12/11 07:33:06;;;;;;;0.40;0.40;;;3.60;99.90;;;;;;4974045;28;20117;-67
2021/12/11 07:35:34;;;;;;;0.93;0.93;;;3.70;99.90;;;;;;4975005;28;20031;-67
2021/12/11 07:38:01;;;;;;;0.15;0.15;;;3.70;99.90;;;;;;4973576;28;20095;-68
2021/12/11 07:40:35;;;;;;;0.65;0.65;;;3.90;99.90;;;;;;4974972;28;20499;-70
2021/12/11 07:43:01;;;;;;;1.40;1.30;;;4.00;99.90;;;;;;4974019;28;20057;-69
2021/12/11 07:45:28;;;;;;;0.40;0.40;;;4.10;99.90;;;;;;4974799;28;20495;-69
2021/12/11 07:47:54;;;;;;;0.10;0.10;;;4.10;99.90;;;;;;4975177;28;20031;-69
2021/12/11 07:50:22;;;;;;;0.75;0.70;;;4.00;99.90;;;;;;4974890;28;20083;-68
2021/12/11 07:52:49;;;;;;;0.63;0.50;;;4.00;99.90;;;;;;4974789;28;20492;-66
2021/12/11 07:55:15;;;;;;;0.55;0.55;;;4.00;99.90;;;;;;4975159;28;20039;-74
2021/12/11 07:57:42;;;;;;;0.20;0.20;;;4.00;99.90;;;;;;4954543;28;20111;-73
2021/12/11 08:00:11;;;;;;;0.15;0.15;;;4.00;99.90;;;;;;4974376;28;20035;-69
2021/12/11 08:02:37;;;;;;;0.40;0.40;;;4.00;99.90;;;;;;4974353;28;20019;-69
2021/12/11 08:05:05;;;;;;;1.80;1.70;;;4.00;99.90;;;;;;4974582;28;20491;-66
2021/12/11 08:07:30;;;;;;;1.70;1.60;;;4.00;99.90;;;;;;4974296;28;20043;-66
2021/12/11 08:09:56;;;;;;;4.43;2.00;;;4.00;99.90;;;;;;4974389;28;20027;-65
2021/12/11 08:12:22;;;;;;;0.38;0.38;;;4.00;99.90;;;;;;4974484;28;20031;-65
2021/12/11 08:14:50;;;;;;;0.30;0.30;;;4.00;99.90;;;;;;4974726;28;20037;-67
2021/12/11 08:17:19;;;;;;;1.00;0.80;;;4.00;99.90;;;;;;4974497;28;20534;-66
2021/12/11 08:19:45;;;;;;;0.57;0.57;;;4.00;99.90;;;;;;4974110;28;20439;-66
2021/12/11 08:22:12;;;;;;;0.47;0.47;;;4.10;99.90;;;;;;4974707;28;20027;-66
2021/12/11 08:24:39;;;;;;;0.20;0.20;;;4.10;99.90;;;;;;4973058;28;20035;-66
2021/12/11 08:27:13;;;;;;;0.30;0.30;;;4.10;99.90;;;;;;4974286;28;20117;-64
2021/12/11 08:29:43;;;;;;;2.38;1.00;;;4.10;99.90;;;;;;4973200;28;20072;-63
2021/12/11 08:32:11;;;;;;;0.53;0.53;;;4.10;99.90;;;;;;4973111;28;20042;-64
2021/12/11 08:34:38;;;;;;;2.92;1.75;;;4.20;99.90;;;;;;4972999;28;20122;-66
2021/12/11 08:37:08;;;;;;;0.20;0.20;;;4.20;99.90;;;;;;4973017;28;20375;-67
2021/12/11 08:39:35;;;;;;;0.13;0.13;;;4.10;99.90;;;;;;4973892;28;20035;-67
2021/12/11 08:42:06;;;;;;;0.65;0.65;;;4.10;99.90;;;;;;4972978;28;20026;-66
2021/12/11 08:44:37;;;;;;;0.10;0.10;;;4.20;99.90;;;;;;4974073;28;20045;-66
2021/12/11 08:47:09;;;;;;;2.10;1.90;;;4.20;99.90;;;;;;4988781;28;20126;-65
2021/12/11 08:49:43;;;;;;;0.20;0.20;;;4.10;99.90;;;;;;4972840;28;20360;-64
2021/12/11 08:52:15;;;;;;;7.57;1.08;;;4.30;99.90;;;;;;4957216;28;20062;-64
2021/12/11 08:54:41;;;;;;;0.30;0.30;;;4.40;99.90;;;;;;4973917;28;20046;-67
2021/12/11 08:57:13;;;;;;;5.43;3.58;;;4.30;99.90;;;;;;4973544;28;20077;-66
2021/12/11 08:59:45;;;;;;;2.60;1.23;;;4.40;99.90;;;;;;4973949;28;20030;-66
2021/12/11 09:02:34;;;;;;;0.20;0.20;;;4.50;99.90;;;;;;4988606;28;20069;-66
2021/12/11 09:05:15;;;;;;;0.55;0.55;;;4.70;99.90;;;;;;4973736;28;20402;-65
2021/12/11 09:08:02;;;;;;;0.20;0.20;;;4.60;99.90;;;;;;4973569;28;20033;-65
2021/12/11 09:10:38;;;;;;;0.73;0.70;;;4.40;99.90;;;;;;4987689;28;20090;-66
2021/12/11 09:13:15;;;;;;;0.77;0.77;;;4.30;99.90;;;;;;4973641;28;20027;-67
2021/12/11 09:15:59;;;;;;;3.20;0.98;;;4.40;99.90;;;;;;4988513;28;20476;-66
2021/12/11 09:18:38;;;;;;;0.80;0.80;;;4.60;99.90;;;;;;4973626;28;20030;-66
2021/12/11 09:21:34;;;;;;;1.17;0.77;;;4.60;99.90;;;;;;4956563;28;20062;-67
2021/12/11 09:24:23;;;;;;;0.50;0.50;;;4.40;99.90;;;;;;4973386;28;20039;-66
2021/12/11 09:27:21;;;;;;;0.98;0.98;;;4.50;99.90;;;;;;4973194;28;20039;-66
2021/12/11 09:30:23;;;;;;;0.40;0.40;;;4.40;99.90;;;;;;4973341;28;20049;-66
2021/12/11 09:33:00;;;;;;;1.30;1.20;;;4.60;99.90;;;;;;4972120;28;20038;-66
2021/12/11 09:35:36;;;;;;;1.40;1.30;;;4.70;99.90;;;;;;4973625;28;20042;-66
2021/12/11 09:38:09;;;;;;;1.15;1.15;;;4.60;99.90;;;;;;4972189;28;20070;-66
2021/12/11 09:40:35;;;;;;;0.65;0.65;;;4.80;99.90;;;;;;4973272;28;20082;-65
2021/12/11 09:43:01;;;;;;;0.10;0.10;;;4.60;99.90;;;;;;4972991;28;20399;-68
2021/12/11 09:45:38;;;;;;;0.28;0.28;;;4.60;99.90;;;;;;4973050;28;20058;-66
2021/12/11 09:48:10;;;;;;;0.57;0.57;;;4.80;99.90;;;;;;4972982;28;20082;-66
2021/12/11 09:50:50;;;;;;;0.98;0.25;;;4.70;99.90;;;;;;4973024;28;20035;-66
2021/12/11 09:53:20;;;;;;;0.75;0.75;;;4.80;99.90;;;;;;4988039;28;20494;-66
2021/12/11 09:55:48;;;;;;;1.88;1.75;;;4.90;99.90;;;;;;4973301;28;20373;-67
2021/12/11 09:58:21;;;;;;;0.28;0.28;;;4.90;99.90;;;;;;4972916;28;20073;-66
2021/12/11 10:00:49;;;;;;;0.00;0.00;;;5.00;99.90;;;;;;4973084;28;20100;-66
2021/12/11 10:03:20;;;;;;;3.90;1.30;;;5.10;99.90;;;;;;4972930;28;20039;-66
2021/12/11 10:06:11;;;;;;;0.38;0.38;;;5.20;99.90;;;;;;4973099;28;20174;-66
2021/12/11 10:08:42;;;;;;;10.13;1.75;;;5.30;99.90;;;;;;4957759;28;20050;-67
2021/12/11 10:11:28;;;;;;;0.17;0.17;;;5.10;99.90;;;;;;4956064;28;20373;-65
2021/12/11 10:14:05;;;;;;;6.82;1.88;;;5.10;99.90;;;;;;4972821;28;20042;-66
2021/12/11 10:16:38;;;;;;;3.42;2.88;;;5.00;99.90;;;;;;4971552;28;20391;-64
2021/12/11 10:19:09;;;;;;;1.15;1.05;;;5.00;99.90;;;;;;4972496;28;20463;-67
2021/12/11 10:21:49;;;;;;;0.08;0.08;;;4.90;99.90;;;;;;4972965;28;20558;-65
2021/12/11 10:24:21;;;;;;;0.10;0.10;;;4.90;99.90;;;;;;4975559;28;20038;-66
2021/12/11 10:26:47;;;;;;;1.08;0.98;;;5.00;99.90;;;;;;4975095;28;20035;-67
2021/12/11 10:29:14;;;;;;;1.27;1.23;;;5.00;99.90;;;;;;4976370;28;20030;-67
2021/12/11 10:31:55;;;;;;;0.20;0.20;;;5.00;99.90;;;;;;4974576;28;20041;-68
2021/12/11 10:34:26;;;;;;;0.93;0.90;;;5.10;99.90;;;;;;4975757;28;20043;-66
2021/12/11 10:36:57;;;;;;;0.65;0.65;;;5.10;99.90;;;;;;4974586;28;20071;-67
2021/12/11 10:39:24;;;;;;;0.75;0.75;;;5.20;99.90;;;;;;4974225;28;20042;-67
2021/12/11 10:41:51;;;;;;;0.10;0.10;;;5.20;99.90;;;;;;4975575;28;20039;-67
2021/12/11 10:44:32;;;;;;;0.30;0.30;;;5.20;99.90;;;;;;4974386;28;20039;-67
2021/12/11 10:47:08;;;;;;;0.80;0.80;;;5.30;99.90;;;;;;4975195;28;20054;-67
2021/12/11 10:49:36;;;;;;;0.47;0.47;;;5.30;99.90;;;;;;4975314;28;20129;-67
2021/12/11 10:52:23;;;;;;;0.25;0.25;;;5.30;99.90;;;;;;4976068;28;20085;-67
2021/12/11 10:54:53;;;;;;;0.32;0.32;;;5.40;99.90;;;;;;4974649;28;20034;-67
2021/12/11 10:57:21;;;;;;;1.48;1.38;;;5.50;99.90;;;;;;4975664;28;20503;-67
2021/12/11 10:59:53;;;;;;;0.00;0.00;;;5.60;99.90;;;;;;4974744;28;20035;-67
2021/12/11 11:02:31;;;;;;;0.13;0.13;;;5.60;99.90;;;;;;4974728;28;20034;-67
2021/12/11 11:05:29;;;;;;;0.22;0.22;;;5.60;99.90;;;;;;4975715;28;20441;-67
2021/12/11 11:07:56;;;;;;;0.35;0.35;;;5.60;99.90;;;;;;4978593;28;20105;-67
2021/12/11 11:10:36;;;;;;;0.30;0.30;;;5.60;99.90;;;;;;4975605;28;20126;-68
2021/12/11 11:13:07;;;;;;;0.43;0.43;;;5.50;99.90;;;;;;4975856;28;20063;-65
2021/12/11 11:15:34;;;;;;;2.03;1.17;;;5.30;99.90;;;;;;4974614;28;20054;-65
2021/12/11 11:18:01;;;;;;;0.43;0.43;;;5.20;99.90;;;;;;4975756;28;20503;-66
2021/12/11 11:20:36;;;;;;;0.20;0.20;;;5.30;99.90;;;;;;4975552;28;20034;-66
2021/12/11 11:23:04;;;;;;;0.52;0.52;;;5.30;99.90;;;;;;4975590;28;20288;-65
2021/12/11 11:25:36;;;;;;;0.75;0.75;;;5.40;99.90;;;;;;4975283;28;20031;-66
2021/12/11 11:28:09;;;;;;;0.20;0.20;;;5.50;99.90;;;;;;4974316;28;20035;-66
2021/12/11 11:30:48;;;;;;;1.15;1.05;;;5.70;99.90;;;;;;4974076;28;20031;-65
2021/12/11 11:33:15;;;;;;;0.43;0.43;;;5.70;99.90;;;;;;4974163;28;20042;-67
2021/12/11 11:35:44;;;;;;;0.10;0.10;;;5.90;99.90;;;;;;4972950;28;20031;-71
2021/12/11 11:38:22;;;;;;;0.43;0.43;;;5.70;99.90;;;;;;4974235;28;20073;-72
2021/12/11 11:40:55;;;;;;;2.17;0.90;;;5.80;99.90;;;;;;4973717;28;20387;-72
2021/12/11 11:43:22;;;;;;;0.73;0.73;;;5.70;99.90;;;;;;4975242;28;20480;-70
2021/12/11 11:45:52;;;;;;;0.20;0.20;;;6.00;99.90;;;;;;4973583;28;20117;-70
2021/12/11 11:48:26;;;;;;;0.10;0.10;;;6.20;99.90;;;;;;4975104;28;20043;-69
2021/12/11 11:50:57;;;;;;;0.22;0.22;;;6.40;99.90;;;;;;4973575;28;20042;-71
2021/12/11 11:53:26;;;;;;;0.32;0.32;;;6.60;99.90;;;;;;4975343;28;20031;-70
2021/12/11 11:56:03;;;;;;;0.20;0.20;;;6.40;99.90;;;;;;4973662;28;20035;-69
2021/12/11 11:58:32;;;;;;;1.50;0.75;;;6.20;99.90;;;;;;4973731;28;20069;-72
2021/12/11 12:01:38;;;;;;;0.63;0.63;;;6.90;99.90;;;;;;4973605;28;20050;-69
2021/12/11 12:04:06;;;;;;;0.10;0.10;;;7.70;99.90;;;;;;4974543;28;20063;-70
2021/12/11 12:06:35;;;;;;;0.22;0.22;;;8.90;99.90;;;;;;4974696;28;20039;-69
2021/12/11 12:09:06;;;;;;;0.00;0.00;;;9.30;99.90;;;;;;4972859;28;20114;-68
2021/12/11 12:11:33;;;;;;;0.90;0.90;;;9.20;99.90;;;;;;4973465;28;20054;-56
2021/12/11 12:14:01;;;;;;;0.32;0.32;;;9.40;99.90;;;;;;4974692;28;20102;-57
2021/12/11 12:16:31;;;;;;;0.20;0.20;;;10.70;99.90;;;;;;4974972;28;20033;-68
2021/12/11 12:18:58;;;;;;;4.05;1.73;;;11.30;99.00;;;;;;4974897;28;20039;-69
2021/12/11 12:21:25;;;;;;;0.10;0.10;;;10.40;97.40;;;;;;4973209;28;20472;-68
2021/12/11 12:23:50;;;;;;;0.20;0.20;;;9.40;99.90;;;;;;4972752;28;20514;-67
2021/12/11 12:26:28;;;;;;;0.13;0.13;;;10.10;99.90;;;;;;4974253;28;20031;-67
2021/12/11 12:28:56;;;;;;;0.10;0.10;;;11.40;96.20;;;;;;4974286;28;20042;-71
2021/12/11 12:31:37;;;;;;;0.00;0.00;;;9.40;99.80;;;;;;4974157;28;20117;-70
2021/12/11 12:34:05;;;;;;;0.00;0.00;;;10.00;99.70;;;;;;4974352;28;20045;-70
2021/12/11 12:36:32;;;;;;;0.10;0.10;;;9.70;99.80;;;;;;4972914;28;20515;-71
2021/12/11 12:38:58;;;;;;;0.30;0.30;;;10.10;99.90;;;;;;4956800;28;20031;-75
2021/12/11 12:41:34;;;;;;;0.00;0.00;;;10.20;99.90;;;;;;4973856;28;20476;-72
2021/12/11 12:44:17;;;;;;;0.35;0.35;;;10.80;98.20;;;;;;4974127;28;20045;-72
2021/12/11 12:47:00;;;;;;;0.65;0.60;;;10.60;99.10;;;;;;4973475;28;20065;-72
2021/12/11 12:49:32;;;;;;;0.45;0.45;;;10.00;99.90;;;;;;4972789;28;20385;-72
2021/12/11 12:52:05;;;;;;;0.10;0.10;;;9.50;99.90;;;;;;4972125;28;20449;-72
2021/12/11 12:54:32;;;;;;;1.55;1.40;;;8.50;99.90;;;;;;4972449;28;20041;-66
2021/12/11 12:57:18;;;;;;;1.10;1.02;;;7.70;99.90;;;;;;4973688;28;20046;-66
2021/12/11 13:00:03;;;;;;;0.10;0.10;;;7.30;99.90;;;;;;4973973;28;20030;-64
2021/12/11 13:02:31;;;;;;;0.75;0.75;;;6.70;99.90;;;;;;4973979;28;20027;-65
2021/12/11 13:05:13;;;;;;;0.30;0.30;;;6.50;99.90;;;;;;4973800;28;20082;-68
2021/12/11 13:07:40;;;;;;;0.32;0.32;;;6.40;99.90;;;;;;4974045;28;20045;-68
2021/12/11 13:10:14;;;;;;;0.00;0.00;;;6.30;99.90;;;;;;4973710;28;20531;-69
2021/12/11 13:12:45;;;;;;;0.00;0.00;;;6.40;99.90;;;;;;4973795;28;20416;-65
2021/12/11 13:15:26;;;;;;;0.28;0.28;;;6.20;99.90;;;;;;4972610;28;20391;-65
2021/12/11 13:17:54;;;;;;;0.37;0.37;;;5.90;99.90;;;;;;4972637;28;20493;-65
2021/12/11 13:20:35;;;;;;;0.22;0.22;;;5.80;99.90;;;;;;4973301;28;20783;-65
2021/12/11 13:23:04;;;;;;;1.10;1.08;;;5.80;99.90;;;;;;4973352;28;20038;-66
2021/12/11 13:25:59;;;;;;;0.55;0.55;;;5.80;99.90;;;;;;4972073;28;20487;-65
2021/12/11 13:28:32;;;;;;;0.10;0.10;;;5.90;99.90;;;;;;4973106;28;20173;-65
2021/12/11 13:31:27;;;;;;;0.10;0.10;;;5.90;99.90;;;;;;4972659;28;20061;-68
2021/12/11 13:33:56;;;;;;;0.40;0.40;;;5.90;99.90;;;;;;4972113;28;20039;-65
2021/12/11 13:36:24;;;;;;;0.28;0.28;;;5.80;99.90;;;;;;4972518;28;20088;-65
2021/12/11 13:38:51;;;;;;;0.10;0.10;;;5.80;99.90;;;;;;4972845;28;20034;-65
2021/12/11 13:41:49;;;;;;;0.10;0.10;;;5.80;99.90;;;;;;4973187;28;20046;-65
2021/12/11 13:44:19;;;;;;;0.20;0.20;;;5.70;99.90;;;;;;4985434;28;20105;-65
2021/12/11 13:46:47;;;;;;;0.00;0.00;;;5.80;99.90;;;;;;4987826;28;20043;-64